KPQI/PQI METAR and TAF weather

Enter ICAO airport designator
Station Type Date Time Source
KPQI METAR 2021/04/17 01:56 UTC NOAA

KPQI 170156Z AUTO 05014KT 10SM SCT029 02/M03 A2987 RMK AO2 SLP146 T00221028


Station Type Date Time Source
KPQI Decoded METAR 2021/04/17 01:56 UTC NOAA

Presque Isle, ME, United States (KPQI) 46-41N 068-03W 146M
Apr 16, 2021 - 09:56 PM EDT / 2021.04.17 0156 UTC
Wind: from the NE (050 degrees) at 16 MPH (14 KT):0
Visibility: 10 mile(s):0
Sky conditions: partly cloudy
Temperature: 36.0 F (2.2 C)
Dew Point: 27.0 F (-2.8 C)
Relative Humidity: 69%
Pressure (altimeter): 29.87 in. Hg (1011 hPa)
ob: KPQI 170156Z AUTO 05014KT 10SM SCT029 02/M03 A2987 RMK AO2 SLP146 T00221028
cycle: 2

Station Type Date Time Source
KPQI TAF 2021/04/16 18:39 UTC NOAA

TAF KPQI 161736Z 1618/1718 08015G25KT P6SM SCT040
FM162200 06012G22KT P6SM BKN035
FM170200 06010G18KT P6SM OVC025
FM170700 06010G18KT 2SM -SN BR OVC015
FM171500 04010G18KT 3SM -SN BR SCT015 OVC025

Example: see airport list